Time;durP1;ratioP1;P1;durP2;ratioP2;P2;SDS_P1;SDS_P2;PMS_P1;PMS_P2;Temp;Humidity;BMP_temperature;BMP_pressure;BME280_temperature;BME280_humidity;BME280_pressure;Samples;Min_cycle;Max_cycle;Signal;HPM_P1;HPM_P2
2022/02/03 00:00:38;;;;;;;32.67;23.00;;;;;;;;;;5118721;27;20239;-82
2022/02/03 00:03:13;;;;;;;27.77;21.70;;;;;;;;;;5131148;27;20197;-81
2022/02/03 00:05:45;;;;;;;28.47;22.07;;;;;;;;;;5120138;27;20228;-82
2022/02/03 00:08:22;;;;;;;31.03;22.90;;;;;;;;;;5126906;27;20245;-80
2022/02/03 00:11:19;;;;;;;31.37;22.93;;;;;;;;;;5130568;27;20601;-82
2022/02/03 00:17:00;;;;;;;29.97;22.70;;;;;;;;;;5117225;28;20275;-82
2022/02/03 00:22:22;;;;;;;27.83;21.27;;;;;;;;;;5122838;28;20196;-82
2022/02/03 00:24:58;;;;;;;29.57;22.27;;;;;;;;;;5128940;28;20261;-82
2022/02/03 00:27:37;;;;;;;27.17;21.17;;;;;;;;;;5129200;28;20196;-82
2022/02/03 00:30:10;;;;;;;28.67;21.60;;;;;;;;;;5131946;28;20277;-82
2022/02/03 00:32:53;;;;;;;29.20;21.80;;;;;;;;;;5132550;28;20197;-82
2022/02/03 00:49:15;;;;;;;27.13;21.10;;;;;;;;;;5019883;28;20207;-82
2022/02/03 00:51:46;;;;;;;28.57;21.20;;;;;;;;;;5011859;28;20208;-82
2022/02/03 00:54:14;;;;;;;30.30;22.40;;;;;;;;;;5013713;28;20255;-82
2022/02/03 00:56:43;;;;;;;30.23;21.37;;;;;;;;;;5013511;28;20223;-82
2022/02/03 00:59:11;;;;;;;27.53;20.83;;;;;;;;;;5014682;28;20288;-82
2022/02/03 01:01:41;;;;;;;29.87;20.57;;;;;;;;;;5020622;28;20244;-82
2022/02/03 01:04:09;;;;;;;28.50;21.73;;;;;;;;;;5022113;28;20284;-82
2022/02/03 01:06:43;;;;;;;30.37;21.90;;;;;;;;;;5018222;28;20730;-82
2022/02/03 01:09:10;;;;;;;29.33;22.57;;;;;;;;;;5012805;28;20208;-82
2022/02/03 01:11:42;;;;;;;28.87;20.90;;;;;;;;;;5029046;28;20305;-82
2022/02/03 01:14:13;;;;;;;27.93;21.77;;;;;;;;;;5032594;28;20208;-83
2022/02/03 01:17:00;;;;;;;30.20;23.23;;;;;;;;;;5040836;28;20676;-82
2022/02/03 01:19:50;;;;;;;25.93;19.97;;;;;;;;;;5092810;28;20244;-82
2022/02/03 01:44:21;;;;;;;26.53;19.63;;;;;;;;;;5134419;27;20591;-82
2022/02/03 01:46:55;;;;;;;25.87;18.87;;;;;;;;;;5117744;27;20196;-83
2022/02/03 01:51:36;;;;;;;26.77;18.63;;;;;;;;;;5124738;27;20249;-82
2022/02/03 01:52:15;;;;;;;25.40;19.30;;;;;;;;;;5128266;27;20205;-82
2022/02/03 01:54:44;;;;;;;25.20;18.30;;;;;;;;;;5127947;27;20781;-82
2022/02/03 01:57:13;;;;;;;25.90;17.33;;;;;;;;;;5102938;28;20746;-83
2022/02/03 01:59:42;;;;;;;24.50;17.20;;;;;;;;;;5108224;28;20638;-83
2022/02/03 02:02:09;;;;;;;22.43;17.13;;;;;;;;;;5114300;28;20201;-82
2022/02/03 02:05:01;;;;;;;23.07;18.10;;;;;;;;;;5115154;28;20284;-82
2022/02/03 02:07:31;;;;;;;25.70;17.57;;;;;;;;;;5078059;28;20226;-82
2022/02/03 02:10:20;;;;;;;22.63;16.30;;;;;;;;;;5093910;28;20230;-82
2022/02/03 02:12:57;;;;;;;24.40;17.17;;;;;;;;;;5094794;28;20206;-82
2022/02/03 02:15:52;;;;;;;26.13;18.50;;;;;;;;;;5093480;28;20854;-82
2022/02/03 02:18:58;;;;;;;22.93;17.37;;;;;;;;;;5102698;28;20202;-83
2022/02/03 02:38:13;;;;;;;23.97;16.80;;;;;;;;;;5094018;28;20660;-82
2022/02/03 02:41:19;;;;;;;23.07;17.27;;;;;;;;;;5093403;28;20221;-82
2022/02/03 02:43:45;;;;;;;22.40;16.83;;;;;;;;;;5094304;28;20248;-82
2022/02/03 02:46:15;;;;;;;24.03;17.00;;;;;;;;;;5109292;28;20197;-82
2022/02/03 02:49:08;;;;;;;23.23;16.93;;;;;;;;;;5107118;28;20225;-82
2022/02/03 02:51:38;;;;;;;22.50;16.57;;;;;;;;;;5100829;28;20225;-82
2022/02/03 02:54:25;;;;;;;24.93;17.70;;;;;;;;;;5112852;28;20259;-82
2022/02/03 02:57:10;;;;;;;26.90;18.03;;;;;;;;;;5109389;28;20622;-82
2022/02/03 03:00:14;;;;;;;24.10;17.27;;;;;;;;;;5110589;28;20194;-82
2022/02/03 03:03:13;;;;;;;27.40;18.90;;;;;;;;;;5071715;28;20198;-82
2022/02/03 03:30:42;;;;;;;25.87;19.07;;;;;;;;;;5092209;28;20256;-82
2022/02/03 03:33:20;;;;;;;26.73;19.60;;;;;;;;;;5093119;28;20205;-82
2022/02/03 03:35:50;;;;;;;28.30;20.07;;;;;;;;;;5102222;28;20635;-82
2022/02/03 03:38:19;;;;;;;28.83;20.10;;;;;;;;;;5109794;28;20262;-83
2022/02/03 03:40:49;;;;;;;28.83;20.03;;;;;;;;;;5114593;28;20240;-84
2022/02/03 03:43:20;;;;;;;28.30;20.60;;;;;;;;;;5118717;28;20217;-82
2022/02/03 03:45:48;;;;;;;30.07;20.00;;;;;;;;;;5098233;28;20234;-83
2022/02/03 03:48:18;;;;;;;27.73;19.80;;;;;;;;;;5099560;28;20285;-83
2022/02/03 03:50:49;;;;;;;29.47;19.80;;;;;;;;;;5110968;28;20256;-82
2022/02/03 03:53:25;;;;;;;30.13;20.50;;;;;;;;;;5091834;28;20205;-82
2022/02/03 03:56:01;;;;;;;29.13;20.73;;;;;;;;;;5105183;28;20229;-82
2022/02/03 04:30:00;;;;;;;37.13;23.70;;;;;;;;;;5009211;28;20254;-82
2022/02/03 04:33:09;;;;;;;33.53;22.83;;;;;;;;;;5008233;28;20205;-82
2022/02/03 05:01:24;;;;;;;27.73;19.57;;;;;;;;;;4957344;28;20191;-82
2022/02/03 05:04:08;;;;;;;27.13;19.30;;;;;;;;;;5006002;28;20199;-82
2022/02/03 05:06:55;;;;;;;27.27;18.80;;;;;;;;;;5053569;28;20227;-82
2022/02/03 05:09:44;;;;;;;25.83;17.63;;;;;;;;;;5048696;28;20204;-82
2022/02/03 05:12:28;;;;;;;25.40;17.10;;;;;;;;;;5048302;28;20220;-82
2022/02/03 05:15:33;;;;;;;27.73;18.97;;;;;;;;;;5048619;28;20203;-82
2022/02/03 05:24:22;;;;;;;24.90;15.37;;;;;;;;;;5054863;28;20718;-82
2022/02/03 05:33:13;;;;;;;20.77;13.03;;;;;;;;;;5037882;28;20200;-82
2022/02/03 05:42:07;;;;;;;23.00;12.60;;;;;;;;;;4992661;28;20606;-82
2022/02/03 05:44:50;;;;;;;22.93;13.80;;;;;;;;;;4995479;28;20644;-82
2022/02/03 05:47:46;;;;;;;21.60;13.70;;;;;;;;;;4979273;28;20294;-82
2022/02/03 06:01:40;;;;;;;20.13;12.10;;;;;;;;;;4975173;28;20241;-81
2022/02/03 06:04:28;;;;;;;19.63;11.90;;;;;;;;;;4985991;28;20212;-83
2022/02/03 06:12:50;;;;;;;19.47;10.73;;;;;;;;;;5011253;28;20286;-83
2022/02/03 06:15:23;;;;;;;17.93;11.00;;;;;;;;;;5042663;28;20267;-83
2022/02/03 06:20:52;;;;;;;19.97;11.00;;;;;;;;;;5038978;28;20659;-83
2022/02/03 06:23:26;;;;;;;16.13;9.47;;;;;;;;;;5050462;28;20195;-82
2022/02/03 06:28:43;;;;;;;16.33;9.87;;;;;;;;;;5045528;28;20246;-83
2022/02/03 06:31:11;;;;;;;13.30;8.60;;;;;;;;;;5042097;28;20219;-82
2022/02/03 06:33:38;;;;;;;15.53;8.57;;;;;;;;;;5050088;28;20290;-86
2022/02/03 06:36:07;;;;;;;14.63;9.23;;;;;;;;;;5089714;28;20598;-84
2022/02/03 06:38:34;;;;;;;17.47;11.10;;;;;;;;;;5096141;28;20198;-84
2022/02/03 06:41:02;;;;;;;16.63;9.63;;;;;;;;;;5099229;28;20259;-83
2022/02/03 06:43:29;;;;;;;15.60;9.87;;;;;;;;;;5108427;28;20312;-83
2022/02/03 06:46:02;;;;;;;16.43;9.90;;;;;;;;;;5106498;28;20255;-84
2022/02/03 06:48:31;;;;;;;16.57;10.07;;;;;;;;;;5113724;28;20194;-83
2022/02/03 06:51:06;;;;;;;20.23;10.83;;;;;;;;;;5109225;28;20301;-83
2022/02/03 06:53:39;;;;;;;17.07;10.50;;;;;;;;;;5111085;28;20223;-83
2022/02/03 06:56:10;;;;;;;17.07;9.50;;;;;;;;;;5108725;27;20233;-85
2022/02/03 06:58:42;;;;;;;16.70;10.13;;;;;;;;;;5127583;27;20196;-84
2022/02/03 07:01:15;;;;;;;13.23;8.70;;;;;;;;;;5126338;27;20197;-84
2022/02/03 07:03:50;;;;;;;14.37;9.13;;;;;;;;;;5131699;27;20224;-84
2022/02/03 07:06:18;;;;;;;13.50;8.83;;;;;;;;;;5117830;27;20201;-84
2022/02/03 07:08:48;;;;;;;16.37;9.47;;;;;;;;;;5117787;27;20202;-83
2022/02/03 07:11:18;;;;;;;13.83;9.20;;;;;;;;;;5105711;28;20221;-84
2022/02/03 07:13:46;;;;;;;13.33;8.77;;;;;;;;;;5114943;27;20225;-84
2022/02/03 07:16:13;;;;;;;15.10;9.10;;;;;;;;;;5116615;27;20204;-84
2022/02/03 07:18:41;;;;;;;19.73;10.70;;;;;;;;;;5117909;27;20225;-84
2022/02/03 07:21:11;;;;;;;16.60;9.50;;;;;;;;;;5112623;27;20289;-84
2022/02/03 07:23:39;;;;;;;18.53;10.60;;;;;;;;;;5112764;27;20695;-85
2022/02/03 07:26:07;;;;;;;12.60;7.73;;;;;;;;;;5110228;27;20700;-83
2022/02/03 07:28:35;;;;;;;16.00;9.80;;;;;;;;;;5118430;27;20221;-83
2022/02/03 07:31:02;;;;;;;14.40;9.10;;;;;;;;;;5115946;27;20218;-84
2022/02/03 07:33:32;;;;;;;16.03;9.03;;;;;;;;;;5118569;27;20317;-83
2022/02/03 07:35:59;;;;;;;15.50;9.67;;;;;;;;;;5119724;27;20189;-85
2022/02/03 07:38:27;;;;;;;23.43;12.07;;;;;;;;;;5123386;27;20232;-83
2022/02/03 07:40:54;;;;;;;22.70;11.67;;;;;;;;;;5117376;27;20212;-83
2022/02/03 07:43:23;;;;;;;18.33;10.70;;;;;;;;;;5111740;27;20274;-83
2022/02/03 07:45:50;;;;;;;14.63;8.23;;;;;;;;;;5112154;27;20244;-83
2022/02/03 07:48:20;;;;;;;17.20;9.77;;;;;;;;;;5116725;27;20194;-86
2022/02/03 07:50:47;;;;;;;16.23;9.43;;;;;;;;;;5118721;27;20204;-88
2022/02/03 07:53:15;;;;;;;15.77;8.90;;;;;;;;;;5119185;27;20198;-88
2022/02/03 07:55:42;;;;;;;14.37;8.50;;;;;;;;;;5108166;28;20283;-88
2022/02/03 07:58:10;;;;;;;13.47;8.70;;;;;;;;;;5112419;27;20276;-88
2022/02/03 08:00:38;;;;;;;16.00;8.73;;;;;;;;;;5115823;27;20233;-89
2022/02/03 08:03:10;;;;;;;13.40;8.23;;;;;;;;;;5117967;27;20634;-88
2022/02/03 08:05:39;;;;;;;13.67;7.63;;;;;;;;;;5115107;27;20665;-88
2022/02/03 08:08:14;;;;;;;14.87;7.80;;;;;;;;;;5112042;27;20305;-88
2022/02/03 08:10:45;;;;;;;17.17;8.03;;;;;;;;;;5108945;28;20201;-88
2022/02/03 08:13:20;;;;;;;13.57;7.80;;;;;;;;;;5117893;27;20217;-89
2022/02/03 08:16:00;;;;;;;11.23;6.70;;;;;;;;;;5117081;27;20321;-89
2022/02/03 08:18:29;;;;;;;11.67;7.40;;;;;;;;;;5115011;28;20201;-89
2022/02/03 08:21:02;;;;;;;12.70;7.60;;;;;;;;;;5115131;28;20656;-88
2022/02/03 08:29:18;;;;;;;13.00;6.80;;;;;;;;;;5119024;28;20706;-87
2022/02/03 08:31:53;;;;;;;9.77;5.50;;;;;;;;;;5117855;28;20213;-88
2022/02/03 08:34:34;;;;;;;10.87;5.80;;;;;;;;;;5114406;28;20668;-87
2022/02/03 08:37:02;;;;;;;7.73;5.20;;;;;;;;;;5117133;28;20270;-87
2022/02/03 08:39:34;;;;;;;10.07;6.00;;;;;;;;;;5123176;28;20209;-88
2022/02/03 08:42:02;;;;;;;12.23;6.63;;;;;;;;;;5121646;28;20250;-86
2022/02/03 08:44:29;;;;;;;11.30;6.57;;;;;;;;;;5118545;28;20201;-86
2022/02/03 08:46:58;;;;;;;12.03;7.50;;;;;;;;;;5121292;28;20247;-87
2022/02/03 08:49:25;;;;;;;9.00;5.83;;;;;;;;;;5119492;28;20233;-86
2022/02/03 08:51:54;;;;;;;8.70;5.27;;;;;;;;;;5122298;28;20240;-88
2022/02/03 08:54:25;;;;;;;9.67;4.77;;;;;;;;;;5115905;28;20689;-88
2022/02/03 08:57:03;;;;;;;10.93;6.03;;;;;;;;;;5112507;27;20266;-87
2022/02/03 08:59:58;;;;;;;7.70;3.87;;;;;;;;;;5116379;27;21610;-87
2022/02/03 09:38:48;;;;;;;8.27;3.37;;;;;;;;;;4940464;29;20657;-88
2022/02/03 09:41:32;;;;;;;5.67;3.47;;;;;;;;;;4945673;29;20243;-89
2022/02/03 09:55:14;;;;;;;5.00;3.57;;;;;;;;;;5032490;28;20232;-87
2022/02/03 09:57:52;;;;;;;6.53;4.00;;;;;;;;;;5097506;28;20194;-86
2022/02/03 10:00:34;;;;;;;6.50;3.83;;;;;;;;;;5094905;28;20194;-87
2022/02/03 10:03:03;;;;;;;5.33;2.97;;;;;;;;;;5100063;28;20278;-87
2022/02/03 10:05:36;;;;;;;4.00;2.57;;;;;;;;;;5093035;28;20222;-87
2022/02/03 10:08:05;;;;;;;5.00;2.57;;;;;;;;;;5093253;28;20208;-87
2022/02/03 10:10:32;;;;;;;5.30;3.23;;;;;;;;;;5094854;28;20198;-87
2022/02/03 10:13:01;;;;;;;5.40;3.10;;;;;;;;;;5100315;28;20791;-87
2022/02/03 10:15:28;;;;;;;4.97;3.63;;;;;;;;;;5093348;28;20188;-87
2022/02/03 10:17:58;;;;;;;5.83;4.10;;;;;;;;;;5092502;28;20778;-86
2022/02/03 10:20:28;;;;;;;5.53;3.97;;;;;;;;;;5095047;28;20202;-87
2022/02/03 10:23:20;;;;;;;6.77;3.27;;;;;;;;;;5096724;28;20193;-87
2022/02/03 10:25:53;;;;;;;4.63;2.93;;;;;;;;;;5097361;28;20209;-86
2022/02/03 10:28:21;;;;;;;4.30;3.23;;;;;;;;;;5103681;28;20225;-87
2022/02/03 10:30:50;;;;;;;5.10;3.63;;;;;;;;;;5101987;28;20210;-88
2022/02/03 10:33:19;;;;;;;5.20;3.87;;;;;;;;;;5093227;28;20235;-87
2022/02/03 10:35:50;;;;;;;5.13;3.57;;;;;;;;;;5099184;28;20206;-89
2022/02/03 10:47:25;;;;;;;5.57;3.93;;;;;;;;;;5049547;28;20199;-88
2022/02/03 10:50:10;;;;;;;8.37;4.73;;;;;;;;;;5046962;28;20206;-88
2022/02/03 10:53:09;;;;;;;6.33;4.10;;;;;;;;;;5049184;28;20228;-87
2022/02/03 11:04:16;;;;;;;5.57;4.33;;;;;;;;;;5055069;28;20764;-87
2022/02/03 11:06:56;;;;;;;5.37;3.90;;;;;;;;;;5052535;28;20265;-87
2022/02/03 11:09:34;;;;;;;6.70;4.20;;;;;;;;;;5046736;28;20682;-88
2022/02/03 11:19:01;;;;;;;;;;;;;;;;;;;;;
2022/02/03 11:46:08;;;;;;;6.63;4.27;;;;;;;;;;4927857;28;20196;-86
2022/02/03 12:20:13;;;;;;;6.17;3.67;;;;;;;;;;5101910;28;20238;-87
2022/02/03 12:22:57;;;;;;;5.77;3.67;;;;;;;;;;5101618;28;20193;-88
2022/02/03 12:25:37;;;;;;;6.03;3.47;;;;;;;;;;5104036;28;20201;-88
2022/02/03 12:28:14;;;;;;;4.40;3.40;;;;;;;;;;5106152;28;20206;-87
2022/02/03 12:31:05;;;;;;;5.20;3.60;;;;;;;;;;5097648;28;20229;-86
2022/02/03 12:39:10;;;;;;;6.87;4.60;;;;;;;;;;5107765;28;20203;-90
2022/02/03 12:41:40;;;;;;;6.27;4.50;;;;;;;;;;5104181;28;20489;-90
2022/02/03 12:44:15;;;;;;;7.67;4.10;;;;;;;;;;5106263;28;20228;-89
2022/02/03 12:46:42;;;;;;;7.20;4.53;;;;;;;;;;5101675;28;20197;-90
2022/02/03 12:49:11;;;;;;;5.67;4.40;;;;;;;;;;5106497;28;20241;-89
2022/02/03 12:51:38;;;;;;;4.77;3.80;;;;;;;;;;5101313;28;20221;-89
2022/02/03 12:54:12;;;;;;;6.13;4.80;;;;;;;;;;5103680;28;20229;-89
2022/02/03 12:56:39;;;;;;;5.83;3.97;;;;;;;;;;5099715;28;20226;-89
2022/02/03 12:59:10;;;;;;;5.53;4.13;;;;;;;;;;5100193;28;20237;-89
2022/02/03 13:01:40;;;;;;;5.23;4.03;;;;;;;;;;5106319;28;20201;-89
2022/02/03 13:04:12;;;;;;;4.80;3.27;;;;;;;;;;5108471;28;20267;-89
2022/02/03 13:06:46;;;;;;;4.80;3.87;;;;;;;;;;5104007;28;20197;-89
2022/02/03 13:09:14;;;;;;;6.33;4.67;;;;;;;;;;5100702;28;20197;-88
2022/02/03 13:11:45;;;;;;;6.90;4.73;;;;;;;;;;5106870;28;20190;-88
2022/02/03 13:14:25;;;;;;;8.33;5.67;;;;;;;;;;5099855;28;20186;-89
2022/02/03 13:16:57;;;;;;;8.50;5.10;;;;;;;;;;5099284;28;20230;-89
2022/02/03 13:19:33;;;;;;;7.13;5.83;;;;;;;;;;5104919;28;20198;-89
2022/02/03 13:22:15;;;;;;;6.10;5.03;;;;;;;;;;5101703;28;20284;-89
2022/02/03 13:25:04;;;;;;;5.33;4.67;;;;;;;;;;5101968;28;20194;-89
2022/02/03 13:27:37;;;;;;;5.33;4.23;;;;;;;;;;5096230;28;20205;-89
2022/02/03 13:30:09;;;;;;;4.60;3.70;;;;;;;;;;5090587;28;20234;-89
2022/02/03 13:32:41;;;;;;;4.17;3.50;;;;;;;;;;5094459;28;20202;-88
2022/02/03 13:38:01;;;;;;;4.57;3.73;;;;;;;;;;5093453;28;20202;-89
2022/02/03 13:40:29;;;;;;;5.20;4.00;;;;;;;;;;5085457;28;20289;-88
2022/02/03 13:43:00;;;;;;;4.40;3.50;;;;;;;;;;5085777;28;20650;-85
2022/02/03 13:45:27;;;;;;;3.97;3.30;;;;;;;;;;5090022;28;20658;-87
2022/02/03 13:47:54;;;;;;;7.77;4.80;;;;;;;;;;5083606;28;20233;-86
2022/02/03 13:50:24;;;;;;;5.40;4.33;;;;;;;;;;5092047;28;20198;-86
2022/02/03 13:52:57;;;;;;;6.43;5.13;;;;;;;;;;5085767;28;20726;-87
2022/02/03 14:15:22;;;;;;;12.93;9.53;;;;;;;;;;5043786;28;20324;-87
2022/02/03 14:18:08;;;;;;;13.87;9.27;;;;;;;;;;5050781;28;20196;-87
2022/02/03 14:20:42;;;;;;;9.73;7.87;;;;;;;;;;5048837;28;20255;-87
2022/02/03 14:28:52;;;;;;;7.47;5.73;;;;;;;;;;5040343;28;20667;-87
2022/02/03 14:31:19;;;;;;;6.30;5.33;;;;;;;;;;5049372;28;20254;-87
2022/02/03 14:33:47;;;;;;;5.57;4.60;;;;;;;;;;5046034;28;20203;-87
2022/02/03 14:36:17;;;;;;;5.27;4.43;;;;;;;;;;5049072;28;20269;-86
2022/02/03 14:38:51;;;;;;;4.97;4.00;;;;;;;;;;5044896;28;20200;-86
2022/02/03 14:41:24;;;;;;;6.80;4.33;;;;;;;;;;5047797;28;20242;-85
2022/02/03 14:43:53;;;;;;;7.13;4.27;;;;;;;;;;5082400;28;20246;-86
2022/02/03 14:46:20;;;;;;;5.47;4.17;;;;;;;;;;5084371;28;20678;-85
2022/02/03 14:48:49;;;;;;;6.30;4.40;;;;;;;;;;5090253;28;20222;-87
2022/02/03 14:51:21;;;;;;;7.20;4.93;;;;;;;;;;5088648;28;20393;-86
2022/02/03 14:53:53;;;;;;;6.97;5.00;;;;;;;;;;5090405;28;20263;-88
2022/02/03 14:59:07;;;;;;;8.43;5.90;;;;;;;;;;5086363;28;20210;-86
2022/02/03 15:01:34;;;;;;;8.40;5.83;;;;;;;;;;5090385;28;20811;-86
2022/02/03 15:04:03;;;;;;;7.10;5.07;;;;;;;;;;5083310;28;20628;-87
2022/02/03 15:06:37;;;;;;;10.43;6.20;;;;;;;;;;5085629;28;20202;-86
2022/02/03 15:09:17;;;;;;;7.70;5.80;;;;;;;;;;5090321;28;20218;-86
2022/02/03 15:11:58;;;;;;;8.00;6.30;;;;;;;;;;5086167;28;20202;-86
2022/02/03 15:14:26;;;;;;;5.73;4.67;;;;;;;;;;5080530;28;20210;-86
2022/02/03 15:16:54;;;;;;;7.03;5.40;;;;;;;;;;5085499;28;20256;-87
2022/02/03 15:19:21;;;;;;;6.93;5.17;;;;;;;;;;5084120;28;20198;-86
2022/02/03 15:21:49;;;;;;;5.67;4.60;;;;;;;;;;5083079;28;20248;-88
2022/02/03 15:24:16;;;;;;;4.93;3.23;;;;;;;;;;5083781;28;20199;-86
2022/02/03 15:26:43;;;;;;;6.00;4.40;;;;;;;;;;5085950;28;20290;-88
2022/02/03 15:29:11;;;;;;;4.83;4.20;;;;;;;;;;5089672;28;20193;-88
2022/02/03 15:31:42;;;;;;;6.97;4.33;;;;;;;;;;5086398;28;20288;-89
2022/02/03 15:34:17;;;;;;;6.73;5.43;;;;;;;;;;5082760;28;20217;-87
2022/02/03 15:36:49;;;;;;;5.73;4.23;;;;;;;;;;5084034;28;20217;-87
2022/02/03 15:39:21;;;;;;;5.17;4.30;;;;;;;;;;5084447;28;20638;-84
2022/02/03 15:41:51;;;;;;;5.90;4.43;;;;;;;;;;5082270;28;20210;-86
2022/02/03 15:44:18;;;;;;;6.27;4.90;;;;;;;;;;5089562;28;20226;-87
2022/02/03 15:46:59;;;;;;;6.87;4.70;;;;;;;;;;5079327;28;20206;-86
2022/02/03 15:49:59;;;;;;;4.73;3.67;;;;;;;;;;5081526;28;20206;-85
2022/02/03 15:58:47;;;;;;;5.47;4.30;;;;;;;;;;5083232;28;20233;-87
2022/02/03 16:03:50;;;;;;;5.73;4.40;;;;;;;;;;5054110;28;20207;-87
2022/02/03 16:17:41;;;;;;;5.20;4.27;;;;;;;;;;5146884;27;20599;-87
2022/02/03 16:20:13;;;;;;;6.57;5.13;;;;;;;;;;5131722;27;20296;-89
2022/02/03 16:22:46;;;;;;;13.00;7.37;;;;;;;;;;5128779;27;20693;-87
2022/02/03 16:25:26;;;;;;;5.45;4.47;;;;;;;;;;5131377;27;20478;-90
2022/02/03 16:54:18;;;;;;;10.73;7.87;;;;;;;;;;4893670;29;20208;-88
2022/02/03 16:56:48;;;;;;;8.90;6.53;;;;;;;;;;4890438;29;20224;-88
2022/02/03 16:59:15;;;;;;;6.17;5.50;;;;;;;;;;4890409;29;20208;-88
2022/02/03 17:02:08;;;;;;;6.70;5.40;;;;;;;;;;4880212;29;20285;-89
2022/02/03 17:04:56;;;;;;;8.73;6.50;;;;;;;;;;4918575;28;20209;-88
2022/02/03 17:07:25;;;;;;;9.50;7.33;;;;;;;;;;4958630;28;20202;-87
2022/02/03 17:09:52;;;;;;;11.70;10.50;;;;;;;;;;4962035;28;20205;-88
2022/02/03 17:12:20;;;;;;;11.87;10.57;;;;;;;;;;4962819;28;20267;-89
2022/02/03 17:14:47;;;;;;;12.57;10.10;;;;;;;;;;4966114;28;20201;-86
2022/02/03 17:17:15;;;;;;;10.40;8.87;;;;;;;;;;5054874;28;20229;-90
2022/02/03 17:19:43;;;;;;;9.83;8.70;;;;;;;;;;5095614;28;20692;-89
2022/02/03 17:22:29;;;;;;;9.30;8.17;;;;;;;;;;5116660;28;20608;-90
2022/02/03 17:25:09;;;;;;;8.77;7.87;;;;;;;;;;5109198;28;20563;-89
2022/02/03 18:09:52;;;;;;;15.47;12.60;;;;;;;;;;5048821;28;20584;-89
2022/02/03 18:18:36;;;;;;;17.10;12.80;;;;;;;;;;5093352;28;20325;-87
2022/02/03 18:35:09;;;;;;;13.77;11.60;;;;;;;;;;5082181;28;20224;-91
2022/02/03 18:45:47;;;;;;;13.00;10.27;;;;;;;;;;5078794;28;20217;-89
2022/02/03 18:51:31;;;;;;;11.80;9.87;;;;;;;;;;5029470;28;20305;-89
2022/02/03 18:54:11;;;;;;;11.57;9.47;;;;;;;;;;5011522;28;20222;-89
2022/02/03 18:56:44;;;;;;;12.53;10.10;;;;;;;;;;5030389;28;20224;-88
2022/02/03 18:59:26;;;;;;;13.50;11.87;;;;;;;;;;5022615;28;20660;-90
2022/02/03 19:02:17;;;;;;;14.47;12.00;;;;;;;;;;5013640;28;20258;-89
2022/02/03 19:16:06;;;;;;;13.97;11.77;;;;;;;;;;4930830;29;20719;-85
2022/02/03 19:22:13;;;;;;;14.77;12.40;;;;;;;;;;4931368;29;22072;-85
2022/02/03 19:24:40;;;;;;;12.47;10.07;;;;;;;;;;4928578;29;20934;-85
2022/02/03 19:27:27;;;;;;;10.83;8.53;;;;;;;;;;4966253;28;20293;-85
2022/02/03 20:05:44;;;;;;;15.07;12.10;;;;;;;;;;5058787;28;20705;-84
2022/02/03 20:08:17;;;;;;;14.93;11.40;;;;;;;;;;5055963;28;20263;-86
2022/02/03 20:10:47;;;;;;;16.70;12.70;;;;;;;;;;5049816;28;20207;-86
2022/02/03 20:13:16;;;;;;;16.30;12.00;;;;;;;;;;5047032;28;20197;-86
2022/02/03 20:15:46;;;;;;;16.30;12.30;;;;;;;;;;5056998;28;20312;-86
2022/02/03 20:18:14;;;;;;;17.30;13.93;;;;;;;;;;5053707;28;20361;-85
2022/02/03 20:20:41;;;;;;;17.27;12.93;;;;;;;;;;5057363;28;20201;-86
2022/02/03 20:23:11;;;;;;;16.97;12.90;;;;;;;;;;5053652;28;20289;-86
2022/02/03 20:25:39;;;;;;;16.23;12.43;;;;;;;;;;5055406;28;20285;-85
2022/02/03 20:28:06;;;;;;;15.60;12.20;;;;;;;;;;5048089;28;20202;-86
2022/02/03 20:30:37;;;;;;;15.80;12.43;;;;;;;;;;5051372;28;20292;-86
2022/02/03 20:33:04;;;;;;;17.23;12.30;;;;;;;;;;5066188;28;20218;-85
2022/02/03 20:35:32;;;;;;;17.40;12.57;;;;;;;;;;5055636;28;20211;-85
2022/02/03 20:38:00;;;;;;;14.60;12.00;;;;;;;;;;5091339;28;20217;-85
2022/02/03 20:40:27;;;;;;;15.07;11.63;;;;;;;;;;5102626;28;20209;-86
2022/02/03 20:42:54;;;;;;;14.33;11.67;;;;;;;;;;5101330;28;20700;-85
2022/02/03 20:45:22;;;;;;;16.03;12.50;;;;;;;;;;5100305;28;20227;-85
2022/02/03 20:47:53;;;;;;;14.87;12.10;;;;;;;;;;5093520;28;20209;-84
2022/02/03 20:50:21;;;;;;;14.97;11.40;;;;;;;;;;5099802;28;20190;-85
2022/02/03 20:52:48;;;;;;;14.73;11.73;;;;;;;;;;5107820;28;20223;-85
2022/02/03 20:55:16;;;;;;;14.37;11.67;;;;;;;;;;5112422;28;20218;-85
2022/02/03 20:57:43;;;;;;;15.93;12.10;;;;;;;;;;5106510;28;21158;-85
2022/02/03 21:00:21;;;;;;;18.13;13.10;;;;;;;;;;5091131;28;20262;-84
2022/02/03 21:02:54;;;;;;;16.60;11.87;;;;;;;;;;5094264;28;20216;-85
2022/02/03 21:05:24;;;;;;;18.23;12.77;;;;;;;;;;5094574;28;20212;-85
2022/02/03 21:07:52;;;;;;;17.70;12.93;;;;;;;;;;5103548;28;20205;-85
2022/02/03 21:10:22;;;;;;;17.87;13.60;;;;;;;;;;5109690;28;20294;-85
2022/02/03 21:12:52;;;;;;;17.13;13.63;;;;;;;;;;5105314;28;20202;-85
2022/02/03 21:15:24;;;;;;;18.20;12.97;;;;;;;;;;5099189;28;20320;-85
2022/02/03 21:17:52;;;;;;;18.43;13.53;;;;;;;;;;5102095;28;20312;-85
2022/02/03 21:20:22;;;;;;;20.63;14.27;;;;;;;;;;5098473;28;20695;-85
2022/02/03 21:22:51;;;;;;;18.53;14.30;;;;;;;;;;5098858;28;20608;-86
2022/02/03 21:25:23;;;;;;;17.97;13.27;;;;;;;;;;5100510;28;20240;-85
2022/02/03 21:27:53;;;;;;;18.10;13.63;;;;;;;;;;5100455;28;20254;-85
2022/02/03 21:30:20;;;;;;;21.47;14.17;;;;;;;;;;5108170;28;20194;-85
2022/02/03 21:32:48;;;;;;;20.50;14.50;;;;;;;;;;5103147;28;20250;-85
2022/02/03 21:35:16;;;;;;;20.17;14.13;;;;;;;;;;5097273;28;20267;-85
2022/02/03 21:37:45;;;;;;;19.00;14.20;;;;;;;;;;5105147;28;20573;-85
2022/02/03 21:40:14;;;;;;;18.53;13.17;;;;;;;;;;5095199;28;20210;-85
2022/02/03 21:42:41;;;;;;;20.50;13.80;;;;;;;;;;5106818;28;20256;-85
2022/02/03 21:45:09;;;;;;;17.43;13.20;;;;;;;;;;5094513;28;20197;-85
2022/02/03 21:47:36;;;;;;;17.67;13.10;;;;;;;;;;5102462;28;21526;-85
2022/02/03 21:50:04;;;;;;;20.00;14.30;;;;;;;;;;5098316;28;20235;-85
2022/02/03 21:52:36;;;;;;;19.37;13.77;;;;;;;;;;5104779;28;20653;-86
2022/02/03 21:55:06;;;;;;;18.73;13.70;;;;;;;;;;5108390;28;20197;-84
2022/02/03 21:57:37;;;;;;;18.23;14.40;;;;;;;;;;5093244;28;20253;-85
2022/02/03 22:00:05;;;;;;;18.37;14.10;;;;;;;;;;5108494;28;20814;-85
2022/02/03 22:02:32;;;;;;;18.63;14.13;;;;;;;;;;5090757;28;20665;-85
2022/02/03 22:05:01;;;;;;;19.33;14.13;;;;;;;;;;5104779;28;20198;-85
2022/02/03 22:07:28;;;;;;;19.90;14.30;;;;;;;;;;5100929;28;20204;-85
2022/02/03 22:09:55;;;;;;;20.93;14.43;;;;;;;;;;5104183;28;20228;-86
2022/02/03 22:12:23;;;;;;;19.67;14.30;;;;;;;;;;5102317;28;20258;-85
2022/02/03 22:14:51;;;;;;;19.87;14.03;;;;;;;;;;5099526;28;20288;-85
2022/02/03 22:17:18;;;;;;;19.10;14.50;;;;;;;;;;5104043;28;20268;-86
2022/02/03 22:19:52;;;;;;;19.00;15.27;;;;;;;;;;5100727;28;20738;-86
2022/02/03 22:22:37;;;;;;;18.03;13.93;;;;;;;;;;5100625;28;20315;-86
2022/02/03 22:25:20;;;;;;;19.03;14.40;;;;;;;;;;5116004;28;20205;-84
2022/02/03 22:28:04;;;;;;;20.00;13.83;;;;;;;;;;5100812;28;20201;-84
2022/02/03 22:39:03;;;;;;;22.33;14.70;;;;;;;;;;5101711;28;20226;-85
2022/02/03 22:44:25;;;;;;;26.30;15.90;;;;;;;;;;5103488;27;20186;-84
2022/02/03 22:47:17;;;;;;;25.13;15.83;;;;;;;;;;5102742;28;20586;-85
2022/02/03 22:49:43;;;;;;;27.50;16.13;;;;;;;;;;5092773;28;20195;-85
2022/02/03 22:52:11;;;;;;;27.67;17.10;;;;;;;;;;5102575;28;20205;-85
2022/02/03 22:54:39;;;;;;;30.23;17.90;;;;;;;;;;5108081;28;20277;-85
2022/02/03 22:57:08;;;;;;;30.10;17.57;;;;;;;;;;5102871;28;20225;-85
2022/02/03 23:02:24;;;;;;;24.17;15.60;;;;;;;;;;5106362;27;20618;-81
2022/02/03 23:04:51;;;;;;;23.87;16.10;;;;;;;;;;5107352;28;20197;-81
2022/02/03 23:07:21;;;;;;;22.67;15.97;;;;;;;;;;5105842;28;20240;-82
2022/02/03 23:09:57;;;;;;;27.10;16.03;;;;;;;;;;5102490;28;20200;-81
2022/02/03 23:12:44;;;;;;;22.50;14.77;;;;;;;;;;5097356;28;20227;-82
2022/02/03 23:15:46;;;;;;;22.40;14.40;;;;;;;;;;5103110;28;20194;-82
2022/02/03 23:18:29;;;;;;;21.43;14.87;;;;;;;;;;5094811;28;20220;-82
2022/02/03 23:21:30;;;;;;;24.27;15.60;;;;;;;;;;5097209;28;20198;-82
2022/02/03 23:23:57;;;;;;;20.37;14.17;;;;;;;;;;5095269;28;20677;-82
2022/02/03 23:26:27;;;;;;;23.47;15.60;;;;;;;;;;5101586;28;20284;-82
2022/02/03 23:28:59;;;;;;;23.67;15.43;;;;;;;;;;5111986;28;20211;-82
2022/02/03 23:31:31;;;;;;;19.90;14.17;;;;;;;;;;5104312;28;20613;-82
2022/02/03 23:34:00;;;;;;;20.93;14.57;;;;;;;;;;5108669;28;20206;-82
2022/02/03 23:36:27;;;;;;;23.70;14.77;;;;;;;;;;5102899;28;20213;-82
2022/02/03 23:39:04;;;;;;;19.27;14.43;;;;;;;;;;5103753;28;20274;-82
2022/02/03 23:44:18;;;;;;;23.43;14.77;;;;;;;;;;5078641;28;20215;-82
